sensor_id;sensor_type;location;lat;lon;timestamp;temperature;humidity
28837;DHT22;50669;50.982;11.022;2023-07-29T00:01:04;23.30;72.60
28837;DHT22;50669;50.982;11.022;2023-07-29T00:03:37;23.30;72.50
28837;DHT22;50669;50.982;11.022;2023-07-29T00:06:03;23.30;72.60
28837;DHT22;50669;50.982;11.022;2023-07-29T00:08:28;23.30;72.50
28837;DHT22;50669;50.982;11.022;2023-07-29T00:10:56;23.30;72.60
28837;DHT22;50669;50.982;11.022;2023-07-29T00:13:26;23.30;72.50
28837;DHT22;50669;50.982;11.022;2023-07-29T00:15:57;23.30;72.60
28837;DHT22;50669;50.982;11.022;2023-07-29T00:18:23;23.20;72.50
28837;DHT22;50669;50.982;11.022;2023-07-29T00:20:49;23.30;72.50
28837;DHT22;50669;50.982;11.022;2023-07-29T00:23:16;23.20;72.50
28837;DHT22;50669;50.982;11.022;2023-07-29T00:25:42;23.30;72.60
28837;DHT22;50669;50.982;11.022;2023-07-29T00:28:08;23.30;72.60
28837;DHT22;50669;50.982;11.022;2023-07-29T00:30:33;23.20;72.50
28837;DHT22;50669;50.982;11.022;2023-07-29T00:32:59;23.30;72.60
28837;DHT22;50669;50.982;11.022;2023-07-29T00:35:25;23.30;72.60
28837;DHT22;50669;50.982;11.022;2023-07-29T00:37:50;23.30;72.60
28837;DHT22;50669;50.982;11.022;2023-07-29T00:40:22;23.30;72.60
28837;DHT22;50669;50.982;11.022;2023-07-29T00:42:52;23.30;72.60
28837;DHT22;50669;50.982;11.022;2023-07-29T00:45:20;23.30;72.60
28837;DHT22;50669;50.982;11.022;2023-07-29T00:47:50;23.30;72.70
28837;DHT22;50669;50.982;11.022;2023-07-29T00:50:16;23.30;72.60
28837;DHT22;50669;50.982;11.022;2023-07-29T00:52:42;23.30;72.70
28837;DHT22;50669;50.982;11.022;2023-07-29T00:55:08;23.30;72.70
28837;DHT22;50669;50.982;11.022;2023-07-29T00:57:35;23.20;72.50
28837;DHT22;50669;50.982;11.022;2023-07-29T01:00:01;23.20;72.60
28837;DHT22;50669;50.982;11.022;2023-07-29T01:02:28;23.20;72.60
28837;DHT22;50669;50.982;11.022;2023-07-29T01:04:58;23.20;72.50
28837;DHT22;50669;50.982;11.022;2023-07-29T01:07:36;23.20;72.60
28837;DHT22;50669;50.982;11.022;2023-07-29T01:15:25;23.20;72.70
28837;DHT22;50669;50.982;11.022;2023-07-29T01:17:59;23.20;72.70
28837;DHT22;50669;50.982;11.022;2023-07-29T01:20:25;23.20;72.70
28837;DHT22;50669;50.982;11.022;2023-07-29T01:22:56;23.20;72.70
28837;DHT22;50669;50.982;11.022;2023-07-29T01:25:26;23.30;72.80
28837;DHT22;50669;50.982;11.022;2023-07-29T01:27:53;23.20;72.70
28837;DHT22;50669;50.982;11.022;2023-07-29T01:30:29;23.20;73.40
28837;DHT22;50669;50.982;11.022;2023-07-29T01:35:42;23.20;72.70
28837;DHT22;50669;50.982;11.022;2023-07-29T01:38:38;23.20;72.70
28837;DHT22;50669;50.982;11.022;2023-07-29T01:41:08;23.20;72.70
28837;DHT22;50669;50.982;11.022;2023-07-29T01:43:34;23.20;72.80
28837;DHT22;50669;50.982;11.022;2023-07-29T01:46:09;23.20;72.70
28837;DHT22;50669;50.982;11.022;2023-07-29T01:48:37;23.20;72.80
28837;DHT22;50669;50.982;11.022;2023-07-29T01:51:04;23.20;72.80
28837;DHT22;50669;50.982;11.022;2023-07-29T01:53:32;23.20;72.80
28837;DHT22;50669;50.982;11.022;2023-07-29T01:56:00;23.20;72.80
28837;DHT22;50669;50.982;11.022;2023-07-29T01:58:25;23.20;72.80
28837;DHT22;50669;50.982;11.022;2023-07-29T02:00:51;23.20;72.70
28837;DHT22;50669;50.982;11.022;2023-07-29T02:03:22;23.20;72.70
28837;DHT22;50669;50.982;11.022;2023-07-29T02:05:47;23.20;72.80
28837;DHT22;50669;50.982;11.022;2023-07-29T02:08:13;23.20;72.80
28837;DHT22;50669;50.982;11.022;2023-07-29T02:10:39;23.20;72.80
28837;DHT22;50669;50.982;11.022;2023-07-29T02:13:11;23.20;72.80
28837;DHT22;50669;50.982;11.022;2023-07-29T02:15:39;23.20;72.80
28837;DHT22;50669;50.982;11.022;2023-07-29T02:18:04;23.20;72.90
28837;DHT22;50669;50.982;11.022;2023-07-29T02:20:32;23.20;72.80
28837;DHT22;50669;50.982;11.022;2023-07-29T02:23:01;23.20;72.90
28837;DHT22;50669;50.982;11.022;2023-07-29T02:25:29;23.20;72.80
28837;DHT22;50669;50.982;11.022;2023-07-29T02:27:57;23.20;72.80
28837;DHT22;50669;50.982;11.022;2023-07-29T02:30:27;23.20;72.80
28837;DHT22;50669;50.982;11.022;2023-07-29T02:32:53;23.20;72.80
28837;DHT22;50669;50.982;11.022;2023-07-29T02:35:19;23.20;72.80
28837;DHT22;50669;50.982;11.022;2023-07-29T02:37:46;23.20;72.80
28837;DHT22;50669;50.982;11.022;2023-07-29T02:40:12;23.20;72.80
28837;DHT22;50669;50.982;11.022;2023-07-29T02:42:38;23.20;72.90
28837;DHT22;50669;50.982;11.022;2023-07-29T02:45:04;23.20;72.90
28837;DHT22;50669;50.982;11.022;2023-07-29T02:47:30;23.20;72.90
28837;DHT22;50669;50.982;11.022;2023-07-29T02:49:59;23.20;72.90
28837;DHT22;50669;50.982;11.022;2023-07-29T02:52:27;23.20;72.90
28837;DHT22;50669;50.982;11.022;2023-07-29T02:54:53;23.20;72.90
28837;DHT22;50669;50.982;11.022;2023-07-29T02:57:18;23.20;72.90
28837;DHT22;50669;50.982;11.022;2023-07-29T02:59:44;23.20;72.90
28837;DHT22;50669;50.982;11.022;2023-07-29T03:02:12;23.20;72.90
28837;DHT22;50669;50.982;11.022;2023-07-29T03:04:40;23.20;72.90
28837;DHT22;50669;50.982;11.022;2023-07-29T03:07:06;23.20;73.00
28837;DHT22;50669;50.982;11.022;2023-07-29T03:09:34;23.20;72.90
28837;DHT22;50669;50.982;11.022;2023-07-29T03:11:59;23.20;73.00
28837;DHT22;50669;50.982;11.022;2023-07-29T03:14:28;23.20;73.00
28837;DHT22;50669;50.982;11.022;2023-07-29T03:16:56;23.20;73.00
28837;DHT22;50669;50.982;11.022;2023-07-29T03:19:22;23.20;73.00
28837;DHT22;50669;50.982;11.022;2023-07-29T03:21:48;23.20;73.00
28837;DHT22;50669;50.982;11.022;2023-07-29T03:24:16;23.20;73.00
28837;DHT22;50669;50.982;11.022;2023-07-29T03:26:42;23.20;73.00
28837;DHT22;50669;50.982;11.022;2023-07-29T03:29:10;23.20;73.00
28837;DHT22;50669;50.982;11.022;2023-07-29T03:31:36;23.20;73.00
28837;DHT22;50669;50.982;11.022;2023-07-29T03:34:01;23.10;72.90
28837;DHT22;50669;50.982;11.022;2023-07-29T03:36:27;23.20;73.00
28837;DHT22;50669;50.982;11.022;2023-07-29T03:38:53;23.20;73.00
28837;DHT22;50669;50.982;11.022;2023-07-29T03:41:22;23.20;73.00
28837;DHT22;50669;50.982;11.022;2023-07-29T03:43:47;23.10;73.00
28837;DHT22;50669;50.982;11.022;2023-07-29T03:46:13;23.20;73.00
28837;DHT22;50669;50.982;11.022;2023-07-29T03:48:39;23.20;73.00
28837;DHT22;50669;50.982;11.022;2023-07-29T03:51:04;23.20;73.00
28837;DHT22;50669;50.982;11.022;2023-07-29T03:53:30;23.10;73.00
28837;DHT22;50669;50.982;11.022;2023-07-29T03:55:56;23.20;73.10
28837;DHT22;50669;50.982;11.022;2023-07-29T03:58:23;23.10;73.00
28837;DHT22;50669;50.982;11.022;2023-07-29T04:00:51;23.10;73.00
28837;DHT22;50669;50.982;11.022;2023-07-29T04:03:20;23.10;73.30
28837;DHT22;50669;50.982;11.022;2023-07-29T04:05:45;23.10;73.00
28837;DHT22;50669;50.982;11.022;2023-07-29T04:08:11;23.20;73.10
28837;DHT22;50669;50.982;11.022;2023-07-29T04:10:37;23.20;73.00
28837;DHT22;50669;50.982;11.022;2023-07-29T04:13:03;23.10;73.10
28837;DHT22;50669;50.982;11.022;2023-07-29T04:15:33;23.10;73.00
28837;DHT22;50669;50.982;11.022;2023-07-29T04:17:59;23.10;73.00
28837;DHT22;50669;50.982;11.022;2023-07-29T04:20:29;23.10;73.00
28837;DHT22;50669;50.982;11.022;2023-07-29T04:22:59;23.10;73.00
28837;DHT22;50669;50.982;11.022;2023-07-29T04:25:24;23.10;73.60
28837;DHT22;50669;50.982;11.022;2023-07-29T04:27:50;23.10;73.00
28837;DHT22;50669;50.982;11.022;2023-07-29T04:30:16;23.20;73.00
28837;DHT22;50669;50.982;11.022;2023-07-29T04:32:41;23.20;73.00
28837;DHT22;50669;50.982;11.022;2023-07-29T04:35:10;23.20;73.00
28837;DHT22;50669;50.982;11.022;2023-07-29T04:37:38;23.10;73.00
28837;DHT22;50669;50.982;11.022;2023-07-29T04:40:06;23.10;73.00
28837;DHT22;50669;50.982;11.022;2023-07-29T04:42:34;23.20;73.00
28837;DHT22;50669;50.982;11.022;2023-07-29T04:45:01;23.20;73.00
28837;DHT22;50669;50.982;11.022;2023-07-29T04:47:29;23.10;73.00
28837;DHT22;50669;50.982;11.022;2023-07-29T04:49:55;23.10;73.00
28837;DHT22;50669;50.982;11.022;2023-07-29T04:52:22;23.20;73.00
28837;DHT22;50669;50.982;11.022;2023-07-29T04:54:48;23.20;72.90
28837;DHT22;50669;50.982;11.022;2023-07-29T04:57:16;23.20;73.10
28837;DHT22;50669;50.982;11.022;2023-07-29T04:59:44;23.20;73.00
28837;DHT22;50669;50.982;11.022;2023-07-29T05:02:12;23.20;73.00
28837;DHT22;50669;50.982;11.022;2023-07-29T05:04:38;23.20;73.00
28837;DHT22;50669;50.982;11.022;2023-07-29T05:07:06;23.20;73.10
28837;DHT22;50669;50.982;11.022;2023-07-29T05:09:34;23.20;73.00
28837;DHT22;50669;50.982;11.022;2023-07-29T05:12:00;23.20;73.00
28837;DHT22;50669;50.982;11.022;2023-07-29T05:14:26;23.20;73.10
28837;DHT22;50669;50.982;11.022;2023-07-29T05:16:54;23.20;73.10
28837;DHT22;50669;50.982;11.022;2023-07-29T05:19:19;23.20;73.10
28837;DHT22;50669;50.982;11.022;2023-07-29T05:21:45;23.20;73.10
28837;DHT22;50669;50.982;11.022;2023-07-29T05:24:11;23.10;73.10
28837;DHT22;50669;50.982;11.022;2023-07-29T05:26:39;23.20;73.00
28837;DHT22;50669;50.982;11.022;2023-07-29T05:29:04;23.20;73.10
28837;DHT22;50669;50.982;11.022;2023-07-29T05:31:32;23.20;73.10
28837;DHT22;50669;50.982;11.022;2023-07-29T05:33:58;23.20;73.10
28837;DHT22;50669;50.982;11.022;2023-07-29T05:36:24;23.20;73.10
28837;DHT22;50669;50.982;11.022;2023-07-29T05:38:55;23.20;73.00
28837;DHT22;50669;50.982;11.022;2023-07-29T05:41:20;23.20;73.00
28837;DHT22;50669;50.982;11.022;2023-07-29T05:43:46;23.20;73.10
28837;DHT22;50669;50.982;11.022;2023-07-29T05:46:15;23.20;73.00
28837;DHT22;50669;50.982;11.022;2023-07-29T05:48:40;23.20;73.00
28837;DHT22;50669;50.982;11.022;2023-07-29T05:51:06;23.20;73.00
28837;DHT22;50669;50.982;11.022;2023-07-29T05:53:31;23.20;73.00
28837;DHT22;50669;50.982;11.022;2023-07-29T05:55:57;23.20;73.00
28837;DHT22;50669;50.982;11.022;2023-07-29T05:58:25;23.20;73.00
28837;DHT22;50669;50.982;11.022;2023-07-29T06:00:51;23.20;73.00
28837;DHT22;50669;50.982;11.022;2023-07-29T06:03:17;23.20;73.00
28837;DHT22;50669;50.982;11.022;2023-07-29T06:05:42;23.20;73.00
28837;DHT22;50669;50.982;11.022;2023-07-29T06:08:08;23.20;73.00
28837;DHT22;50669;50.982;11.022;2023-07-29T06:10:34;23.20;73.00
28837;DHT22;50669;50.982;11.022;2023-07-29T06:13:00;23.20;73.00
28837;DHT22;50669;50.982;11.022;2023-07-29T06:15:25;23.20;73.00
28837;DHT22;50669;50.982;11.022;2023-07-29T06:17:51;23.20;73.00
28837;DHT22;50669;50.982;11.022;2023-07-29T06:20:17;23.20;73.00
28837;DHT22;50669;50.982;11.022;2023-07-29T06:22:42;23.20;73.00
28837;DHT22;50669;50.982;11.022;2023-07-29T06:25:08;23.20;73.00
28837;DHT22;50669;50.982;11.022;2023-07-29T06:27:34;23.20;73.00
28837;DHT22;50669;50.982;11.022;2023-07-29T06:30:02;23.20;73.00
28837;DHT22;50669;50.982;11.022;2023-07-29T06:32:28;23.20;73.10
28837;DHT22;50669;50.982;11.022;2023-07-29T06:34:54;23.20;73.00
28837;DHT22;50669;50.982;11.022;2023-07-29T06:37:20;23.20;73.00
28837;DHT22;50669;50.982;11.022;2023-07-29T06:39:46;23.20;73.00
28837;DHT22;50669;50.982;11.022;2023-07-29T06:42:11;23.20;73.00
28837;DHT22;50669;50.982;11.022;2023-07-29T06:44:37;23.20;73.10
28837;DHT22;50669;50.982;11.022;2023-07-29T06:47:03;23.20;73.10
28837;DHT22;50669;50.982;11.022;2023-07-29T06:49:29;23.20;73.10
28837;DHT22;50669;50.982;11.022;2023-07-29T06:51:54;23.20;73.00
28837;DHT22;50669;50.982;11.022;2023-07-29T06:54:24;23.20;73.10
28837;DHT22;50669;50.982;11.022;2023-07-29T06:56:54;23.20;73.00
28837;DHT22;50669;50.982;11.022;2023-07-29T06:59:19;23.20;73.10
28837;DHT22;50669;50.982;11.022;2023-07-29T07:01:45;23.20;73.00
28837;DHT22;50669;50.982;11.022;2023-07-29T07:04:11;23.20;73.10
28837;DHT22;50669;50.982;11.022;2023-07-29T07:06:36;23.20;73.10
28837;DHT22;50669;50.982;11.022;2023-07-29T07:09:02;23.20;73.00
28837;DHT22;50669;50.982;11.022;2023-07-29T07:11:28;23.20;73.00
28837;DHT22;50669;50.982;11.022;2023-07-29T07:13:56;23.20;73.80
28837;DHT22;50669;50.982;11.022;2023-07-29T07:16:21;23.20;73.00
28837;DHT22;50669;50.982;11.022;2023-07-29T07:18:47;23.20;73.00
28837;DHT22;50669;50.982;11.022;2023-07-29T07:21:13;23.20;73.00
28837;DHT22;50669;50.982;11.022;2023-07-29T07:23:39;23.20;73.00
28837;DHT22;50669;50.982;11.022;2023-07-29T07:26:05;23.20;73.00
28837;DHT22;50669;50.982;11.022;2023-07-29T07:28:30;23.30;73.00
28837;DHT22;50669;50.982;11.022;2023-07-29T07:30:56;23.30;73.10
28837;DHT22;50669;50.982;11.022;2023-07-29T07:33:22;23.30;73.10
28837;DHT22;50669;50.982;11.022;2023-07-29T07:35:48;23.30;73.00
28837;DHT22;50669;50.982;11.022;2023-07-29T07:38:13;23.30;73.00
28837;DHT22;50669;50.982;11.022;2023-07-29T07:40:40;23.30;73.10
28837;DHT22;50669;50.982;11.022;2023-07-29T07:43:08;23.30;73.00
28837;DHT22;50669;50.982;11.022;2023-07-29T07:45:34;23.30;73.00
28837;DHT22;50669;50.982;11.022;2023-07-29T07:47:59;23.30;73.00
28837;DHT22;50669;50.982;11.022;2023-07-29T07:50:27;23.30;73.00
28837;DHT22;50669;50.982;11.022;2023-07-29T07:52:54;23.30;73.00
28837;DHT22;50669;50.982;11.022;2023-07-29T07:55:21;23.30;73.00
28837;DHT22;50669;50.982;11.022;2023-07-29T07:57:48;23.30;73.00
28837;DHT22;50669;50.982;11.022;2023-07-29T08:00:14;23.30;73.00
28837;DHT22;50669;50.982;11.022;2023-07-29T08:02:41;23.30;73.00
28837;DHT22;50669;50.982;11.022;2023-07-29T08:05:07;23.30;73.00
28837;DHT22;50669;50.982;11.022;2023-07-29T08:07:32;23.30;73.00
28837;DHT22;50669;50.982;11.022;2023-07-29T08:09:58;23.30;73.00
28837;DHT22;50669;50.982;11.022;2023-07-29T08:12:26;23.30;73.00
28837;DHT22;50669;50.982;11.022;2023-07-29T08:14:52;23.30;72.90
28837;DHT22;50669;50.982;11.022;2023-07-29T08:17:20;23.30;73.00
28837;DHT22;50669;50.982;11.022;2023-07-29T08:19:46;23.30;73.00
28837;DHT22;50669;50.982;11.022;2023-07-29T08:22:11;23.30;73.00
28837;DHT22;50669;50.982;11.022;2023-07-29T08:24:37;23.30;73.00
28837;DHT22;50669;50.982;11.022;2023-07-29T08:27:03;23.30;73.00
28837;DHT22;50669;50.982;11.022;2023-07-29T08:29:28;23.30;73.00
28837;DHT22;50669;50.982;11.022;2023-07-29T08:31:54;23.40;73.10
28837;DHT22;50669;50.982;11.022;2023-07-29T08:34:22;23.30;73.10
28837;DHT22;50669;50.982;11.022;2023-07-29T08:36:48;23.30;73.00
28837;DHT22;50669;50.982;11.022;2023-07-29T08:39:13;23.30;73.00
28837;DHT22;50669;50.982;11.022;2023-07-29T08:42:07;23.30;72.90
28837;DHT22;50669;50.982;11.022;2023-07-29T08:44:42;23.30;73.10
28837;DHT22;50669;50.982;11.022;2023-07-29T08:47:11;23.40;73.10
28837;DHT22;50669;50.982;11.022;2023-07-29T08:49:39;23.30;73.10
28837;DHT22;50669;50.982;11.022;2023-07-29T08:52:06;23.30;73.10
28837;DHT22;50669;50.982;11.022;2023-07-29T08:54:32;23.30;73.10
28837;DHT22;50669;50.982;11.022;2023-07-29T08:56:59;23.30;73.80
28837;DHT22;50669;50.982;11.022;2023-07-29T08:59:25;23.30;73.00
28837;DHT22;50669;50.982;11.022;2023-07-29T09:01:54;23.30;73.10
28837;DHT22;50669;50.982;11.022;2023-07-29T09:04:22;23.40;73.10
28837;DHT22;50669;50.982;11.022;2023-07-29T09:06:51;23.30;73.10
28837;DHT22;50669;50.982;11.022;2023-07-29T09:09:16;23.30;73.10
28837;DHT22;50669;50.982;11.022;2023-07-29T09:11:43;23.30;73.10
28837;DHT22;50669;50.982;11.022;2023-07-29T09:14:12;23.40;73.20
28837;DHT22;50669;50.982;11.022;2023-07-29T09:16:38;23.40;73.20
28837;DHT22;50669;50.982;11.022;2023-07-29T09:19:07;23.40;73.20
28837;DHT22;50669;50.982;11.022;2023-07-29T09:21:39;23.30;73.10
28837;DHT22;50669;50.982;11.022;2023-07-29T09:24:07;23.30;73.10
28837;DHT22;50669;50.982;11.022;2023-07-29T09:26:33;23.30;73.10
28837;DHT22;50669;50.982;11.022;2023-07-29T09:29:00;23.40;73.20
28837;DHT22;50669;50.982;11.022;2023-07-29T09:31:31;23.30;73.10
28837;DHT22;50669;50.982;11.022;2023-07-29T09:34:02;23.40;73.10
28837;DHT22;50669;50.982;11.022;2023-07-29T09:36:31;23.40;73.20
28837;DHT22;50669;50.982;11.022;2023-07-29T09:38:59;23.40;73.20
28837;DHT22;50669;50.982;11.022;2023-07-29T09:41:28;23.40;73.20
28837;DHT22;50669;50.982;11.022;2023-07-29T09:44:01;23.40;73.30
28837;DHT22;50669;50.982;11.022;2023-07-29T09:46:34;23.40;73.20
28837;DHT22;50669;50.982;11.022;2023-07-29T09:49:02;23.40;73.10
28837;DHT22;50669;50.982;11.022;2023-07-29T09:51:28;23.40;73.20
28837;DHT22;50669;50.982;11.022;2023-07-29T09:53:56;23.40;73.20
28837;DHT22;50669;50.982;11.022;2023-07-29T09:56:26;23.40;73.20
28837;DHT22;50669;50.982;11.022;2023-07-29T09:58:52;23.40;73.20
28837;DHT22;50669;50.982;11.022;2023-07-29T10:01:18;23.40;73.20
28837;DHT22;50669;50.982;11.022;2023-07-29T10:03:47;23.40;73.20
28837;DHT22;50669;50.982;11.022;2023-07-29T10:06:14;23.40;73.20
28837;DHT22;50669;50.982;11.022;2023-07-29T10:08:44;23.40;73.20
28837;DHT22;50669;50.982;11.022;2023-07-29T10:11:12;23.40;73.20
28837;DHT22;50669;50.982;11.022;2023-07-29T10:13:38;23.40;73.20
28837;DHT22;50669;50.982;11.022;2023-07-29T10:16:06;23.40;73.30
28837;DHT22;50669;50.982;11.022;2023-07-29T10:18:33;23.40;73.20
28837;DHT22;50669;50.982;11.022;2023-07-29T10:21:00;23.40;73.20
28837;DHT22;50669;50.982;11.022;2023-07-29T10:23:32;23.40;74.00
28837;DHT22;50669;50.982;11.022;2023-07-29T10:26:09;23.40;73.30
28837;DHT22;50669;50.982;11.022;2023-07-29T10:28:40;23.40;73.30
28837;DHT22;50669;50.982;11.022;2023-07-29T10:31:06;23.40;73.30
28837;DHT22;50669;50.982;11.022;2023-07-29T10:33:34;23.40;73.30
28837;DHT22;50669;50.982;11.022;2023-07-29T10:36:01;23.40;73.20
28837;DHT22;50669;50.982;11.022;2023-07-29T10:38:29;23.40;73.20
28837;DHT22;50669;50.982;11.022;2023-07-29T10:40:56;23.40;73.30
28837;DHT22;50669;50.982;11.022;2023-07-29T10:43:35;23.40;73.20
28837;DHT22;50669;50.982;11.022;2023-07-29T10:46:21;23.40;73.20
28837;DHT22;50669;50.982;11.022;2023-07-29T10:51:29;23.40;73.20
28837;DHT22;50669;50.982;11.022;2023-07-29T10:53:56;23.40;73.20
28837;DHT22;50669;50.982;11.022;2023-07-29T10:58:56;23.40;73.10
28837;DHT22;50669;50.982;11.022;2023-07-29T11:01:28;23.40;73.20
28837;DHT22;50669;50.982;11.022;2023-07-29T11:09:40;23.40;73.90
28837;DHT22;50669;50.982;11.022;2023-07-29T11:15:12;23.50;73.20
28837;DHT22;50669;50.982;11.022;2023-07-29T11:17:47;23.40;73.10
28837;DHT22;50669;50.982;11.022;2023-07-29T11:20:14;23.50;73.20
28837;DHT22;50669;50.982;11.022;2023-07-29T11:22:40;23.50;73.20
28837;DHT22;50669;50.982;11.022;2023-07-29T11:25:11;23.50;73.20
28837;DHT22;50669;50.982;11.022;2023-07-29T11:27:37;23.40;73.10
28837;DHT22;50669;50.982;11.022;2023-07-29T11:30:05;23.50;73.20
28837;DHT22;50669;50.982;11.022;2023-07-29T11:32:37;23.40;73.10
28837;DHT22;50669;50.982;11.022;2023-07-29T11:35:14;23.50;73.20
28837;DHT22;50669;50.982;11.022;2023-07-29T11:37:45;23.50;73.20
28837;DHT22;50669;50.982;11.022;2023-07-29T11:40:20;23.50;73.20
28837;DHT22;50669;50.982;11.022;2023-07-29T11:42:47;23.50;73.10
28837;DHT22;50669;50.982;11.022;2023-07-29T11:45:16;23.50;73.20
28837;DHT22;50669;50.982;11.022;2023-07-29T11:47:42;23.50;73.10
28837;DHT22;50669;50.982;11.022;2023-07-29T11:50:10;23.50;73.10
28837;DHT22;50669;50.982;11.022;2023-07-29T11:52:37;23.50;73.20
28837;DHT22;50669;50.982;11.022;2023-07-29T11:55:04;23.50;73.20
28837;DHT22;50669;50.982;11.022;2023-07-29T11:57:31;23.50;73.10
28837;DHT22;50669;50.982;11.022;2023-07-29T12:00:06;23.50;73.10
28837;DHT22;50669;50.982;11.022;2023-07-29T12:02:33;23.50;73.20
28837;DHT22;50669;50.982;11.022;2023-07-29T12:05:05;23.50;73.10
28837;DHT22;50669;50.982;11.022;2023-07-29T12:07:31;23.50;73.00
28837;DHT22;50669;50.982;11.022;2023-07-29T12:10:01;23.50;73.90
28837;DHT22;50669;50.982;11.022;2023-07-29T12:12:28;23.60;73.10
28837;DHT22;50669;50.982;11.022;2023-07-29T12:14:55;23.50;73.10
28837;DHT22;50669;50.982;11.022;2023-07-29T12:17:23;23.50;73.90
28837;DHT22;50669;50.982;11.022;2023-07-29T12:19:48;23.50;73.10
28837;DHT22;50669;50.982;11.022;2023-07-29T12:22:18;23.50;73.10
28837;DHT22;50669;50.982;11.022;2023-07-29T12:24:44;23.60;73.10
28837;DHT22;50669;50.982;11.022;2023-07-29T12:27:14;23.50;73.10
28837;DHT22;50669;50.982;11.022;2023-07-29T12:29:42;23.60;73.10
28837;DHT22;50669;50.982;11.022;2023-07-29T12:32:08;23.50;73.00
28837;DHT22;50669;50.982;11.022;2023-07-29T12:34:36;23.60;73.10
28837;DHT22;50669;50.982;11.022;2023-07-29T12:37:03;23.60;73.10
28837;DHT22;50669;50.982;11.022;2023-07-29T12:39:31;23.60;73.00
28837;DHT22;50669;50.982;11.022;2023-07-29T12:41:59;23.60;72.90
28837;DHT22;50669;50.982;11.022;2023-07-29T12:44:30;23.70;72.90
28837;DHT22;50669;50.982;11.022;2023-07-29T12:46:56;23.70;72.90
28837;DHT22;50669;50.982;11.022;2023-07-29T12:49:21;23.70;72.90
28837;DHT22;50669;50.982;11.022;2023-07-29T12:51:48;23.70;72.90
28837;DHT22;50669;50.982;11.022;2023-07-29T12:54:18;23.60;72.90
28837;DHT22;50669;50.982;11.022;2023-07-29T12:56:44;23.60;72.90
28837;DHT22;50669;50.982;11.022;2023-07-29T12:59:12;23.60;72.90
28837;DHT22;50669;50.982;11.022;2023-07-29T13:01:40;23.70;73.00
28837;DHT22;50669;50.982;11.022;2023-07-29T13:04:06;23.60;72.90
28837;DHT22;50669;50.982;11.022;2023-07-29T13:06:31;23.70;72.90
28837;DHT22;50669;50.982;11.022;2023-07-29T13:08:57;23.70;72.90
28837;DHT22;50669;50.982;11.022;2023-07-29T13:11:23;23.60;72.90
28837;DHT22;50669;50.982;11.022;2023-07-29T13:13:50;23.70;72.90
28837;DHT22;50669;50.982;11.022;2023-07-29T13:16:16;23.60;72.80
28837;DHT22;50669;50.982;11.022;2023-07-29T13:18:43;23.60;72.80
28837;DHT22;50669;50.982;11.022;2023-07-29T13:21:12;23.60;72.90
28837;DHT22;50669;50.982;11.022;2023-07-29T13:23:37;23.70;72.90
28837;DHT22;50669;50.982;11.022;2023-07-29T13:26:05;23.60;72.90
28837;DHT22;50669;50.982;11.022;2023-07-29T13:28:31;23.70;73.00
28837;DHT22;50669;50.982;11.022;2023-07-29T13:30:59;23.60;72.90
28837;DHT22;50669;50.982;11.022;2023-07-29T13:33:28;23.60;72.90
28837;DHT22;50669;50.982;11.022;2023-07-29T13:35:54;23.60;72.90
28837;DHT22;50669;50.982;11.022;2023-07-29T13:38:19;23.60;73.00
28837;DHT22;50669;50.982;11.022;2023-07-29T13:40:47;23.70;73.10
28837;DHT22;50669;50.982;11.022;2023-07-29T13:43:18;23.60;73.00
28837;DHT22;50669;50.982;11.022;2023-07-29T13:45:44;23.60;72.90
28837;DHT22;50669;50.982;11.022;2023-07-29T13:48:09;23.60;73.00
28837;DHT22;50669;50.982;11.022;2023-07-29T13:50:35;23.60;73.00
28837;DHT22;50669;50.982;11.022;2023-07-29T13:53:03;23.60;73.00
28837;DHT22;50669;50.982;11.022;2023-07-29T13:55:29;23.60;73.00
28837;DHT22;50669;50.982;11.022;2023-07-29T13:57:57;23.60;73.10
28837;DHT22;50669;50.982;11.022;2023-07-29T14:00:22;23.60;73.10
28837;DHT22;50669;50.982;11.022;2023-07-29T14:02:50;23.60;73.00
28837;DHT22;50669;50.982;11.022;2023-07-29T14:05:18;23.60;73.10
28837;DHT22;50669;50.982;11.022;2023-07-29T14:07:46;23.60;73.10
28837;DHT22;50669;50.982;11.022;2023-07-29T14:10:14;23.60;73.10
28837;DHT22;50669;50.982;11.022;2023-07-29T14:12:40;23.60;73.10
28837;DHT22;50669;50.982;11.022;2023-07-29T14:15:08;23.60;73.00
28837;DHT22;50669;50.982;11.022;2023-07-29T14:17:33;23.60;73.00
28837;DHT22;50669;50.982;11.022;2023-07-29T14:19:59;23.60;73.10
28837;DHT22;50669;50.982;11.022;2023-07-29T14:22:25;23.60;73.10
28837;DHT22;50669;50.982;11.022;2023-07-29T14:24:50;23.60;73.10
28837;DHT22;50669;50.982;11.022;2023-07-29T14:27:16;23.60;73.10
28837;DHT22;50669;50.982;11.022;2023-07-29T14:29:42;23.60;73.10
28837;DHT22;50669;50.982;11.022;2023-07-29T14:32:10;23.60;73.10
28837;DHT22;50669;50.982;11.022;2023-07-29T14:34:36;23.60;73.10
28837;DHT22;50669;50.982;11.022;2023-07-29T14:37:01;23.60;73.80
28837;DHT22;50669;50.982;11.022;2023-07-29T14:39:29;23.70;73.10
28837;DHT22;50669;50.982;11.022;2023-07-29T14:41:55;23.80;73.00
28837;DHT22;50669;50.982;11.022;2023-07-29T14:44:20;23.80;72.80
28837;DHT22;50669;50.982;11.022;2023-07-29T14:46:48;23.90;72.60
28837;DHT22;50669;50.982;11.022;2023-07-29T14:49:14;23.90;72.60
28837;DHT22;50669;50.982;11.022;2023-07-29T14:51:42;23.80;72.60
28837;DHT22;50669;50.982;11.022;2023-07-29T14:54:08;23.90;72.80
28837;DHT22;50669;50.982;11.022;2023-07-29T14:56:36;23.80;72.80
28837;DHT22;50669;50.982;11.022;2023-07-29T14:59:04;23.80;72.90
28837;DHT22;50669;50.982;11.022;2023-07-29T15:01:32;23.80;72.90
28837;DHT22;50669;50.982;11.022;2023-07-29T15:03:57;23.80;72.90
28837;DHT22;50669;50.982;11.022;2023-07-29T15:06:23;23.80;72.90
28837;DHT22;50669;50.982;11.022;2023-07-29T15:08:50;23.80;72.90
28837;DHT22;50669;50.982;11.022;2023-07-29T15:11:18;23.80;72.90
28837;DHT22;50669;50.982;11.022;2023-07-29T15:13:44;23.80;73.00
28837;DHT22;50669;50.982;11.022;2023-07-29T15:16:10;23.80;72.90
28837;DHT22;50669;50.982;11.022;2023-07-29T15:18:35;23.80;72.90
28837;DHT22;50669;50.982;11.022;2023-07-29T15:21:03;23.80;72.90
28837;DHT22;50669;50.982;11.022;2023-07-29T15:23:34;23.80;72.90
28837;DHT22;50669;50.982;11.022;2023-07-29T15:26:00;23.70;72.90
28837;DHT22;50669;50.982;11.022;2023-07-29T15:28:26;23.70;73.00
28837;DHT22;50669;50.982;11.022;2023-07-29T15:30:54;23.70;73.00
28837;DHT22;50669;50.982;11.022;2023-07-29T15:33:22;23.70;73.00
28837;DHT22;50669;50.982;11.022;2023-07-29T15:35:48;23.70;73.00
28837;DHT22;50669;50.982;11.022;2023-07-29T15:38:14;23.70;73.00